sensor_id;sensor_type;location;lat;lon;timestamp;temperature;humidity
4056;DHT22;2043;52.184;8.690;2023-04-03T00:02:01;3.40;93.60
4056;DHT22;2043;52.184;8.690;2023-04-03T00:04:28;3.30;93.50
4056;DHT22;2043;52.184;8.690;2023-04-03T00:06:55;3.30;93.70
4056;DHT22;2043;52.184;8.690;2023-04-03T00:09:21;3.20;93.90
4056;DHT22;2043;52.184;8.690;2023-04-03T00:11:48;3.20;94.00
4056;DHT22;2043;52.184;8.690;2023-04-03T00:14:15;3.20;93.80
4056;DHT22;2043;52.184;8.690;2023-04-03T00:19:09;3.10;94.20
4056;DHT22;2043;52.184;8.690;2023-04-03T00:21:38;3.10;93.80
4056;DHT22;2043;52.184;8.690;2023-04-03T00:24:06;3.10;94.00
4056;DHT22;2043;52.184;8.690;2023-04-03T00:26:33;3.00;93.90
4056;DHT22;2043;52.184;8.690;2023-04-03T00:28:59;3.10;94.00
4056;DHT22;2043;52.184;8.690;2023-04-03T00:31:26;3.00;94.30
4056;DHT22;2043;52.184;8.690;2023-04-03T00:33:53;3.00;94.20
4056;DHT22;2043;52.184;8.690;2023-04-03T00:36:20;3.00;94.10
4056;DHT22;2043;52.184;8.690;2023-04-03T00:38:47;3.00;94.20
4056;DHT22;2043;52.184;8.690;2023-04-03T00:41:13;2.90;94.60
4056;DHT22;2043;52.184;8.690;2023-04-03T00:43:40;2.80;94.80
4056;DHT22;2043;52.184;8.690;2023-04-03T00:46:07;2.80;95.00
4056;DHT22;2043;52.184;8.690;2023-04-03T00:51:19;2.70;95.40
4056;DHT22;2043;52.184;8.690;2023-04-03T00:53:51;2.70;95.40
4056;DHT22;2043;52.184;8.690;2023-04-03T00:56:21;2.70;95.30
4056;DHT22;2043;52.184;8.690;2023-04-03T00:59:04;2.70;95.50
4056;DHT22;2043;52.184;8.690;2023-04-03T01:03:59;2.60;95.60
4056;DHT22;2043;52.184;8.690;2023-04-03T01:06:29;2.50;95.70
4056;DHT22;2043;52.184;8.690;2023-04-03T01:08:59;2.60;95.90
4056;DHT22;2043;52.184;8.690;2023-04-03T01:11:26;2.50;96.00
4056;DHT22;2043;52.184;8.690;2023-04-03T01:13:53;2.50;95.90
4056;DHT22;2043;52.184;8.690;2023-04-03T01:18:47;2.40;96.10
4056;DHT22;2043;52.184;8.690;2023-04-03T01:26:18;2.30;96.80
4056;DHT22;2043;52.184;8.690;2023-04-03T01:28:45;2.30;96.80
4056;DHT22;2043;52.184;8.690;2023-04-03T01:34:02;2.20;96.90
4056;DHT22;2043;52.184;8.690;2023-04-03T01:36:31;2.10;97.10
4056;DHT22;2043;52.184;8.690;2023-04-03T01:38:59;2.10;97.30
4056;DHT22;2043;52.184;8.690;2023-04-03T01:41:27;2.10;97.40
4056;DHT22;2043;52.184;8.690;2023-04-03T01:43:53;2.10;97.70
4056;DHT22;2043;52.184;8.690;2023-04-03T01:46:21;2.00;97.60
4056;DHT22;2043;52.184;8.690;2023-04-03T01:48:48;1.90;97.90
4056;DHT22;2043;52.184;8.690;2023-04-03T01:51:15;1.90;98.10
4056;DHT22;2043;52.184;8.690;2023-04-03T01:56:09;1.90;98.40
4056;DHT22;2043;52.184;8.690;2023-04-03T01:58:36;1.90;98.30
4056;DHT22;2043;52.184;8.690;2023-04-03T02:01:03;1.90;98.30
4056;DHT22;2043;52.184;8.690;2023-04-03T02:05:57;1.70;98.60
4056;DHT22;2043;52.184;8.690;2023-04-03T02:08:24;1.70;98.80
4056;DHT22;2043;52.184;8.690;2023-04-03T02:15:46;1.60;99.10
4056;DHT22;2043;52.184;8.690;2023-04-03T02:18:13;1.60;99.60
4056;DHT22;2043;52.184;8.690;2023-04-03T02:20:40;1.60;99.60
4056;DHT22;2043;52.184;8.690;2023-04-03T02:23:07;1.60;99.50
4056;DHT22;2043;52.184;8.690;2023-04-03T02:25:34;1.50;99.50
4056;DHT22;2043;52.184;8.690;2023-04-03T02:28:04;1.40;99.60
4056;DHT22;2043;52.184;8.690;2023-04-03T02:30:31;1.40;99.70
4056;DHT22;2043;52.184;8.690;2023-04-03T02:32:57;1.40;99.90
4056;DHT22;2043;52.184;8.690;2023-04-03T02:35:24;1.30;99.90
4056;DHT22;2043;52.184;8.690;2023-04-03T02:40:18;1.30;99.90
4056;DHT22;2043;52.184;8.690;2023-04-03T02:42:45;1.30;99.90
4056;DHT22;2043;52.184;8.690;2023-04-03T02:45:12;1.30;99.90
4056;DHT22;2043;52.184;8.690;2023-04-03T02:47:38;1.30;99.90
4056;DHT22;2043;52.184;8.690;2023-04-03T02:50:05;1.20;99.90
4056;DHT22;2043;52.184;8.690;2023-04-03T02:54:59;1.30;99.90
4056;DHT22;2043;52.184;8.690;2023-04-03T02:59:53;1.30;99.70
4056;DHT22;2043;52.184;8.690;2023-04-03T03:02:20;1.20;99.70
4056;DHT22;2043;52.184;8.690;2023-04-03T03:07:14;1.20;99.90
4056;DHT22;2043;52.184;8.690;2023-04-03T03:12:08;1.10;99.80
4056;DHT22;2043;52.184;8.690;2023-04-03T03:14:35;1.10;99.80
4056;DHT22;2043;52.184;8.690;2023-04-03T03:17:02;1.10;99.90
4056;DHT22;2043;52.184;8.690;2023-04-03T03:21:56;1.00;99.90
4056;DHT22;2043;52.184;8.690;2023-04-03T03:26:50;1.00;99.90
4056;DHT22;2043;52.184;8.690;2023-04-03T03:31:44;1.00;99.90
4056;DHT22;2043;52.184;8.690;2023-04-03T03:36:39;1.00;99.90
4056;DHT22;2043;52.184;8.690;2023-04-03T03:41:33;0.90;99.90
4056;DHT22;2043;52.184;8.690;2023-04-03T03:44:00;0.90;99.90
4056;DHT22;2043;52.184;8.690;2023-04-03T03:46:27;0.90;99.90
4056;DHT22;2043;52.184;8.690;2023-04-03T03:48:54;1.00;99.90
4056;DHT22;2043;52.184;8.690;2023-04-03T03:51:20;0.90;99.90
4056;DHT22;2043;52.184;8.690;2023-04-03T03:53:47;0.90;99.90
4056;DHT22;2043;52.184;8.690;2023-04-03T03:56:14;0.90;99.90
4056;DHT22;2043;52.184;8.690;2023-04-03T03:58:41;0.80;99.90
4056;DHT22;2043;52.184;8.690;2023-04-03T04:01:08;0.80;99.90
4056;DHT22;2043;52.184;8.690;2023-04-03T04:03:35;0.80;99.90
4056;DHT22;2043;52.184;8.690;2023-04-03T04:06:02;0.70;99.90
4056;DHT22;2043;52.184;8.690;2023-04-03T04:08:28;0.70;99.90
4056;DHT22;2043;52.184;8.690;2023-04-03T04:13:23;0.70;99.90
4056;DHT22;2043;52.184;8.690;2023-04-03T04:15:49;0.70;99.90
4056;DHT22;2043;52.184;8.690;2023-04-03T04:18:16;0.70;99.90
4056;DHT22;2043;52.184;8.690;2023-04-03T04:20:45;0.70;99.90
4056;DHT22;2043;52.184;8.690;2023-04-03T04:23:12;0.60;99.90
4056;DHT22;2043;52.184;8.690;2023-04-03T04:25:39;0.60;99.90
4056;DHT22;2043;52.184;8.690;2023-04-03T04:28:06;0.60;99.90
4056;DHT22;2043;52.184;8.690;2023-04-03T04:37:55;0.40;99.90
4056;DHT22;2043;52.184;8.690;2023-04-03T04:45:17;0.40;99.90
4056;DHT22;2043;52.184;8.690;2023-04-03T04:47:44;0.50;99.90
4056;DHT22;2043;52.184;8.690;2023-04-03T04:50:11;0.50;99.90
4056;DHT22;2043;52.184;8.690;2023-04-03T04:52:38;0.40;99.90
4056;DHT22;2043;52.184;8.690;2023-04-03T04:55:05;0.40;99.90
4056;DHT22;2043;52.184;8.690;2023-04-03T04:57:32;0.50;99.90
4056;DHT22;2043;52.184;8.690;2023-04-03T04:59:59;0.40;99.90
4056;DHT22;2043;52.184;8.690;2023-04-03T05:07:21;0.30;99.90
4056;DHT22;2043;52.184;8.690;2023-04-03T05:09:48;0.30;99.90
4056;DHT22;2043;52.184;8.690;2023-04-03T05:19:36;0.30;99.90
4056;DHT22;2043;52.184;8.690;2023-04-03T05:26:58;0.40;99.90
4056;DHT22;2043;52.184;8.690;2023-04-03T05:29:25;0.40;99.90
4056;DHT22;2043;52.184;8.690;2023-04-03T05:31:51;0.40;99.90
4056;DHT22;2043;52.184;8.690;2023-04-03T05:34:19;0.40;99.90
4056;DHT22;2043;52.184;8.690;2023-04-03T05:39:13;0.40;99.90
4056;DHT22;2043;52.184;8.690;2023-04-03T05:41:40;0.50;99.90
4056;DHT22;2043;52.184;8.690;2023-04-03T05:44:06;0.50;99.90
4056;DHT22;2043;52.184;8.690;2023-04-03T05:51:32;0.60;99.90
4056;DHT22;2043;52.184;8.690;2023-04-03T05:54:06;0.70;99.90
4056;DHT22;2043;52.184;8.690;2023-04-03T05:56:33;1.20;99.90
4056;DHT22;2043;52.184;8.690;2023-04-03T06:01:27;2.90;98.30
4056;DHT22;2043;52.184;8.690;2023-04-03T06:03:54;4.00;95.10
4056;DHT22;2043;52.184;8.690;2023-04-03T06:06:22;5.30;91.20
4056;DHT22;2043;52.184;8.690;2023-04-03T06:08:49;6.40;87.80
4056;DHT22;2043;52.184;8.690;2023-04-03T06:11:16;6.80;85.50
4056;DHT22;2043;52.184;8.690;2023-04-03T06:13:43;7.70;83.20
4056;DHT22;2043;52.184;8.690;2023-04-03T06:16:15;8.80;80.20
4056;DHT22;2043;52.184;8.690;2023-04-03T06:18:43;9.80;77.50
4056;DHT22;2043;52.184;8.690;2023-04-03T06:21:10;10.40;76.00
4056;DHT22;2043;52.184;8.690;2023-04-03T06:23:37;11.00;74.20
4056;DHT22;2043;52.184;8.690;2023-04-03T06:26:04;11.70;72.40
4056;DHT22;2043;52.184;8.690;2023-04-03T06:30:59;12.40;70.50
4056;DHT22;2043;52.184;8.690;2023-04-03T06:33:26;12.70;69.90
4056;DHT22;2043;52.184;8.690;2023-04-03T06:35:57;13.40;68.90
4056;DHT22;2043;52.184;8.690;2023-04-03T06:38:25;14.00;67.90
4056;DHT22;2043;52.184;8.690;2023-04-03T06:40:51;13.60;67.40
4056;DHT22;2043;52.184;8.690;2023-04-03T06:43:18;13.70;67.40
4056;DHT22;2043;52.184;8.690;2023-04-03T06:45:46;13.60;66.90
4056;DHT22;2043;52.184;8.690;2023-04-03T06:48:13;13.90;67.20
4056;DHT22;2043;52.184;8.690;2023-04-03T06:50:40;14.00;66.50
4056;DHT22;2043;52.184;8.690;2023-04-03T06:53:07;14.30;65.80
4056;DHT22;2043;52.184;8.690;2023-04-03T06:55:34;14.50;65.20
4056;DHT22;2043;52.184;8.690;2023-04-03T06:58:03;14.10;65.70
4056;DHT22;2043;52.184;8.690;2023-04-03T07:00:30;14.00;65.60
4056;DHT22;2043;52.184;8.690;2023-04-03T07:02:57;13.90;65.70
4056;DHT22;2043;52.184;8.690;2023-04-03T07:05:24;12.80;66.60
4056;DHT22;2043;52.184;8.690;2023-04-03T07:07:52;12.60;67.40
4056;DHT22;2043;52.184;8.690;2023-04-03T07:10:19;12.30;68.60
4056;DHT22;2043;52.184;8.690;2023-04-03T07:12:45;12.60;68.20
4056;DHT22;2043;52.184;8.690;2023-04-03T07:15:13;12.80;67.50
4056;DHT22;2043;52.184;8.690;2023-04-03T07:17:41;13.30;66.90
4056;DHT22;2043;52.184;8.690;2023-04-03T07:20:08;13.40;66.70
4056;DHT22;2043;52.184;8.690;2023-04-03T07:22:35;13.00;66.80
4056;DHT22;2043;52.184;8.690;2023-04-03T07:25:02;12.70;68.60
4056;DHT22;2043;52.184;8.690;2023-04-03T07:27:29;11.80;68.40
4056;DHT22;2043;52.184;8.690;2023-04-03T07:32:24;10.20;71.50
4056;DHT22;2043;52.184;8.690;2023-04-03T07:34:51;10.10;72.50
4056;DHT22;2043;52.184;8.690;2023-04-03T07:37:18;9.80;72.90
4056;DHT22;2043;52.184;8.690;2023-04-03T07:39:45;9.40;72.90
4056;DHT22;2043;52.184;8.690;2023-04-03T07:42:11;9.50;73.40
4056;DHT22;2043;52.184;8.690;2023-04-03T07:44:39;9.50;73.40
4056;DHT22;2043;52.184;8.690;2023-04-03T07:47:05;9.40;73.60
4056;DHT22;2043;52.184;8.690;2023-04-03T07:49:32;9.40;73.90
4056;DHT22;2043;52.184;8.690;2023-04-03T07:51:59;9.30;73.30
4056;DHT22;2043;52.184;8.690;2023-04-03T07:54:26;9.40;73.80
4056;DHT22;2043;52.184;8.690;2023-04-03T07:56:53;9.00;74.70
4056;DHT22;2043;52.184;8.690;2023-04-03T07:59:20;9.20;75.30
4056;DHT22;2043;52.184;8.690;2023-04-03T08:01:46;8.70;75.10
4056;DHT22;2043;52.184;8.690;2023-04-03T08:04:13;8.00;76.80
4056;DHT22;2043;52.184;8.690;2023-04-03T08:06:40;7.70;77.90
4056;DHT22;2043;52.184;8.690;2023-04-03T08:09:16;7.90;78.30
4056;DHT22;2043;52.184;8.690;2023-04-03T08:11:43;7.90;77.40
4056;DHT22;2043;52.184;8.690;2023-04-03T08:14:11;8.20;77.80
4056;DHT22;2043;52.184;8.690;2023-04-03T08:16:44;8.70;76.90
4056;DHT22;2043;52.184;8.690;2023-04-03T08:19:12;8.70;76.50
4056;DHT22;2043;52.184;8.690;2023-04-03T08:21:51;8.30;76.40
4056;DHT22;2043;52.184;8.690;2023-04-03T08:24:18;8.40;76.60
4056;DHT22;2043;52.184;8.690;2023-04-03T08:26:44;8.40;76.30
4056;DHT22;2043;52.184;8.690;2023-04-03T08:29:11;8.70;76.20
4056;DHT22;2043;52.184;8.690;2023-04-03T08:34:06;8.40;74.70
4056;DHT22;2043;52.184;8.690;2023-04-03T08:36:33;8.10;75.80
4056;DHT22;2043;52.184;8.690;2023-04-03T08:39:00;8.10;76.30
4056;DHT22;2043;52.184;8.690;2023-04-03T08:41:40;8.10;75.90
4056;DHT22;2043;52.184;8.690;2023-04-03T08:47:20;8.20;75.50
4056;DHT22;2043;52.184;8.690;2023-04-03T08:50:07;8.50;75.20
4056;DHT22;2043;52.184;8.690;2023-04-03T08:52:56;8.10;73.90
4056;DHT22;2043;52.184;8.690;2023-04-03T08:55:43;8.40;74.80
4056;DHT22;2043;52.184;8.690;2023-04-03T08:58:24;8.70;73.90
4056;DHT22;2043;52.184;8.690;2023-04-03T09:01:05;9.10;73.50
4056;DHT22;2043;52.184;8.690;2023-04-03T09:03:39;8.60;72.80
4056;DHT22;2043;52.184;8.690;2023-04-03T09:06:23;8.50;74.20
4056;DHT22;2043;52.184;8.690;2023-04-03T09:09:15;8.40;74.80
4056;DHT22;2043;52.184;8.690;2023-04-03T09:14:52;8.50;74.80
4056;DHT22;2043;52.184;8.690;2023-04-03T09:22:47;8.80;74.30
4056;DHT22;2043;52.184;8.690;2023-04-03T09:25:25;8.70;74.50
4056;DHT22;2043;52.184;8.690;2023-04-03T09:27:53;9.20;75.60
4056;DHT22;2043;52.184;8.690;2023-04-03T09:30:22;9.50;74.00
4056;DHT22;2043;52.184;8.690;2023-04-03T09:32:52;9.50;72.20
4056;DHT22;2043;52.184;8.690;2023-04-03T09:35:24;9.70;72.00
4056;DHT22;2043;52.184;8.690;2023-04-03T09:40:41;9.70;71.40
4056;DHT22;2043;52.184;8.690;2023-04-03T09:45:49;9.20;71.50
4056;DHT22;2043;52.184;8.690;2023-04-03T09:48:19;9.00;73.00
4056;DHT22;2043;52.184;8.690;2023-04-03T09:51:00;9.50;72.10
4056;DHT22;2043;52.184;8.690;2023-04-03T09:58:49;9.90;71.80
4056;DHT22;2043;52.184;8.690;2023-04-03T10:01:24;10.10;70.70
4056;DHT22;2043;52.184;8.690;2023-04-03T10:04:16;10.40;69.60
4056;DHT22;2043;52.184;8.690;2023-04-03T10:06:51;10.50;69.20
4056;DHT22;2043;52.184;8.690;2023-04-03T10:09:30;10.00;68.10
4056;DHT22;2043;52.184;8.690;2023-04-03T10:12:04;9.30;70.40
4056;DHT22;2043;52.184;8.690;2023-04-03T10:14:37;9.20;71.50
4056;DHT22;2043;52.184;8.690;2023-04-03T10:20:44;9.30;70.40
4056;DHT22;2043;52.184;8.690;2023-04-03T10:23:42;8.90;71.00
4056;DHT22;2043;52.184;8.690;2023-04-03T10:31:42;8.80;72.70
4056;DHT22;2043;52.184;8.690;2023-04-03T10:34:26;8.90;73.50
4056;DHT22;2043;52.184;8.690;2023-04-03T10:42:18;8.10;74.10
4056;DHT22;2043;52.184;8.690;2023-04-03T10:47:30;7.70;73.80
4056;DHT22;2043;52.184;8.690;2023-04-03T10:50:24;7.90;74.40
4056;DHT22;2043;52.184;8.690;2023-04-03T10:57:59;8.10;73.40
4056;DHT22;2043;52.184;8.690;2023-04-03T11:00:35;7.90;73.10
4056;DHT22;2043;52.184;8.690;2023-04-03T11:03:16;7.80;73.40
4056;DHT22;2043;52.184;8.690;2023-04-03T11:05:52;7.70;73.50
4056;DHT22;2043;52.184;8.690;2023-04-03T11:10:57;7.30;74.50
4056;DHT22;2043;52.184;8.690;2023-04-03T11:13:59;7.40;74.10
4056;DHT22;2043;52.184;8.690;2023-04-03T11:16:30;7.50;74.50
4056;DHT22;2043;52.184;8.690;2023-04-03T11:24:50;7.80;72.20
4056;DHT22;2043;52.184;8.690;2023-04-03T11:27:21;8.10;72.40
4056;DHT22;2043;52.184;8.690;2023-04-03T11:29:50;8.50;72.00
4056;DHT22;2043;52.184;8.690;2023-04-03T11:33:02;8.70;71.20
4056;DHT22;2043;52.184;8.690;2023-04-03T11:35:32;8.20;71.00
4056;DHT22;2043;52.184;8.690;2023-04-03T11:38:02;8.00;72.30
4056;DHT22;2043;52.184;8.690;2023-04-03T11:40:34;8.10;71.00
4056;DHT22;2043;52.184;8.690;2023-04-03T11:46:03;8.10;71.20
4056;DHT22;2043;52.184;8.690;2023-04-03T11:53:32;8.10;71.00
4056;DHT22;2043;52.184;8.690;2023-04-03T11:56:01;8.40;70.00
4056;DHT22;2043;52.184;8.690;2023-04-03T11:58:35;8.30;69.40
4056;DHT22;2043;52.184;8.690;2023-04-03T12:01:07;8.20;70.30
4056;DHT22;2043;52.184;8.690;2023-04-03T12:48:37;8.10;69.80
4056;DHT22;2043;52.184;8.690;2023-04-03T12:51:05;8.20;69.00
4056;DHT22;2043;52.184;8.690;2023-04-03T12:53:35;8.30;68.80
4056;DHT22;2043;52.184;8.690;2023-04-03T12:56:27;8.50;69.10
4056;DHT22;2043;52.184;8.690;2023-04-03T12:59:23;8.70;68.80
4056;DHT22;2043;52.184;8.690;2023-04-03T13:01:58;8.60;68.00
4056;DHT22;2043;52.184;8.690;2023-04-03T13:04:28;8.50;68.30
4056;DHT22;2043;52.184;8.690;2023-04-03T13:06:55;8.60;69.10
4056;DHT22;2043;52.184;8.690;2023-04-03T13:12:09;8.70;68.10
4056;DHT22;2043;52.184;8.690;2023-04-03T13:14:37;8.80;68.60
4056;DHT22;2043;52.184;8.690;2023-04-03T13:17:13;9.10;67.90
4056;DHT22;2043;52.184;8.690;2023-04-03T13:19:42;9.40;67.30
4056;DHT22;2043;52.184;8.690;2023-04-03T13:22:33;9.60;66.80
4056;DHT22;2043;52.184;8.690;2023-04-03T13:25:07;9.30;67.00
4056;DHT22;2043;52.184;8.690;2023-04-03T13:27:35;9.20;67.10
4056;DHT22;2043;52.184;8.690;2023-04-03T13:30:03;9.40;67.30
4056;DHT22;2043;52.184;8.690;2023-04-03T13:32:31;9.30;67.40
4056;DHT22;2043;52.184;8.690;2023-04-03T13:34:59;9.30;67.70
4056;DHT22;2043;52.184;8.690;2023-04-03T13:37:55;9.70;67.10
4056;DHT22;2043;52.184;8.690;2023-04-03T13:40:22;10.10;66.80
4056;DHT22;2043;52.184;8.690;2023-04-03T13:43:05;10.10;64.80
4056;DHT22;2043;52.184;8.690;2023-04-03T13:45:34;10.00;65.30
4056;DHT22;2043;52.184;8.690;2023-04-03T13:48:16;10.10;65.00
4056;DHT22;2043;52.184;8.690;2023-04-03T13:50:57;10.00;65.20
4056;DHT22;2043;52.184;8.690;2023-04-03T13:53:25;10.00;65.30
4056;DHT22;2043;52.184;8.690;2023-04-03T13:56:00;10.40;66.10
4056;DHT22;2043;52.184;8.690;2023-04-03T13:58:33;10.50;65.10
4056;DHT22;2043;52.184;8.690;2023-04-03T14:01:21;10.60;65.10
4056;DHT22;2043;52.184;8.690;2023-04-03T14:03:59;10.40;64.80
4056;DHT22;2043;52.184;8.690;2023-04-03T14:06:27;9.70;65.70
4056;DHT22;2043;52.184;8.690;2023-04-03T14:11:28;9.50;67.10
4056;DHT22;2043;52.184;8.690;2023-04-03T14:13:57;9.50;67.40
4056;DHT22;2043;52.184;8.690;2023-04-03T14:16:31;9.90;67.80
4056;DHT22;2043;52.184;8.690;2023-04-03T14:18:58;10.10;65.80
4056;DHT22;2043;52.184;8.690;2023-04-03T14:21:25;10.10;65.70
4056;DHT22;2043;52.184;8.690;2023-04-03T14:23:52;10.00;66.10
4056;DHT22;2043;52.184;8.690;2023-04-03T14:26:22;10.10;65.80
4056;DHT22;2043;52.184;8.690;2023-04-03T14:28:52;10.20;65.50
4056;DHT22;2043;52.184;8.690;2023-04-03T14:31:21;10.30;65.60
4056;DHT22;2043;52.184;8.690;2023-04-03T14:33:48;10.40;66.20
4056;DHT22;2043;52.184;8.690;2023-04-03T14:38:45;10.40;64.70
4056;DHT22;2043;52.184;8.690;2023-04-03T14:41:13;10.20;64.90
4056;DHT22;2043;52.184;8.690;2023-04-03T14:43:44;10.20;65.10
4056;DHT22;2043;52.184;8.690;2023-04-03T14:46:19;10.20;65.50
4056;DHT22;2043;52.184;8.690;2023-04-03T14:51:17;10.20;65.50
4056;DHT22;2043;52.184;8.690;2023-04-03T14:53:44;10.20;65.40
4056;DHT22;2043;52.184;8.690;2023-04-03T14:56:26;10.30;66.10
4056;DHT22;2043;52.184;8.690;2023-04-03T14:58:59;10.50;65.40
4056;DHT22;2043;52.184;8.690;2023-04-03T15:01:28;10.50;64.90
4056;DHT22;2043;52.184;8.690;2023-04-03T15:03:55;10.30;65.20
4056;DHT22;2043;52.184;8.690;2023-04-03T15:06:22;10.10;65.70
4056;DHT22;2043;52.184;8.690;2023-04-03T15:08:50;9.80;65.60
4056;DHT22;2043;52.184;8.690;2023-04-03T15:11:16;9.90;67.90
4056;DHT22;2043;52.184;8.690;2023-04-03T15:13:43;10.00;66.30
4056;DHT22;2043;52.184;8.690;2023-04-03T15:16:17;10.00;65.90
4056;DHT22;2043;52.184;8.690;2023-04-03T15:18:45;10.10;65.80
4056;DHT22;2043;52.184;8.690;2023-04-03T15:21:13;10.20;66.20
4056;DHT22;2043;52.184;8.690;2023-04-03T15:23:40;10.30;65.60
4056;DHT22;2043;52.184;8.690;2023-04-03T15:26:08;10.20;64.90
4056;DHT22;2043;52.184;8.690;2023-04-03T15:28:38;10.30;65.50
4056;DHT22;2043;52.184;8.690;2023-04-03T15:31:06;10.40;65.20
4056;DHT22;2043;52.184;8.690;2023-04-03T15:33:34;10.40;65.70
4056;DHT22;2043;52.184;8.690;2023-04-03T15:36:01;10.30;64.90
4056;DHT22;2043;52.184;8.690;2023-04-03T15:38:37;10.20;64.40
4056;DHT22;2043;52.184;8.690;2023-04-03T15:41:04;10.00;64.80
4056;DHT22;2043;52.184;8.690;2023-04-03T15:43:31;9.60;65.10
4056;DHT22;2043;52.184;8.690;2023-04-03T15:46:00;9.30;66.00
4056;DHT22;2043;52.184;8.690;2023-04-03T15:48:28;9.30;66.90
4056;DHT22;2043;52.184;8.690;2023-04-03T15:50:55;9.30;66.60
4056;DHT22;2043;52.184;8.690;2023-04-03T15:53:24;9.40;66.70
4056;DHT22;2043;52.184;8.690;2023-04-03T15:55:51;9.50;67.00
4056;DHT22;2043;52.184;8.690;2023-04-03T15:58:18;9.60;66.90
4056;DHT22;2043;52.184;8.690;2023-04-03T16:00:45;9.60;65.80
4056;DHT22;2043;52.184;8.690;2023-04-03T16:03:16;9.60;67.20
4056;DHT22;2043;52.184;8.690;2023-04-03T16:05:43;9.70;66.80
4056;DHT22;2043;52.184;8.690;2023-04-03T16:08:10;9.70;65.50
4056;DHT22;2043;52.184;8.690;2023-04-03T16:10:38;9.40;65.80
4056;DHT22;2043;52.184;8.690;2023-04-03T16:13:06;9.00;66.00
4056;DHT22;2043;52.184;8.690;2023-04-03T16:15:34;8.80;66.40
4056;DHT22;2043;52.184;8.690;2023-04-03T16:18:02;8.70;66.70
4056;DHT22;2043;52.184;8.690;2023-04-03T16:20:29;8.60;67.30
4056;DHT22;2043;52.184;8.690;2023-04-03T16:22:59;8.50;67.10
4056;DHT22;2043;52.184;8.690;2023-04-03T16:25:26;8.40;67.60
4056;DHT22;2043;52.184;8.690;2023-04-03T16:27:53;8.40;68.20
4056;DHT22;2043;52.184;8.690;2023-04-03T16:30:20;8.50;67.80
4056;DHT22;2043;52.184;8.690;2023-04-03T16:32:47;8.30;68.20
4056;DHT22;2043;52.184;8.690;2023-04-03T16:35:14;8.30;68.30
4056;DHT22;2043;52.184;8.690;2023-04-03T16:37:40;8.40;68.00
4056;DHT22;2043;52.184;8.690;2023-04-03T16:40:08;8.50;67.80
4056;DHT22;2043;52.184;8.690;2023-04-03T16:42:35;8.50;67.80
4056;DHT22;2043;52.184;8.690;2023-04-03T16:45:05;8.50;68.00
4056;DHT22;2043;52.184;8.690;2023-04-03T16:47:32;8.50;67.50
4056;DHT22;2043;52.184;8.690;2023-04-03T16:49:59;8.40;67.10
4056;DHT22;2043;52.184;8.690;2023-04-03T16:52:26;8.40;67.70
4056;DHT22;2043;52.184;8.690;2023-04-03T16:54:53;8.40;67.40
4056;DHT22;2043;52.184;8.690;2023-04-03T16:57:22;8.40;68.30
4056;DHT22;2043;52.184;8.690;2023-04-03T16:59:52;8.30;67.80
4056;DHT22;2043;52.184;8.690;2023-04-03T17:02:20;8.30;68.00
4056;DHT22;2043;52.184;8.690;2023-04-03T17:04:47;8.30;67.90
4056;DHT22;2043;52.184;8.690;2023-04-03T17:07:21;8.20;68.20
4056;DHT22;2043;52.184;8.690;2023-04-03T17:09:48;8.20;68.60
4056;DHT22;2043;52.184;8.690;2023-04-03T17:12:16;8.20;69.00
4056;DHT22;2043;52.184;8.690;2023-04-03T17:14:43;8.10;68.60
4056;DHT22;2043;52.184;8.690;2023-04-03T17:17:10;8.10;69.50
4056;DHT22;2043;52.184;8.690;2023-04-03T17:19:37;8.10;69.20
4056;DHT22;2043;52.184;8.690;2023-04-03T17:22:05;8.00;68.80
4056;DHT22;2043;52.184;8.690;2023-04-03T17:24:32;8.00;69.40
4056;DHT22;2043;52.184;8.690;2023-04-03T17:26:59;8.00;69.10
4056;DHT22;2043;52.184;8.690;2023-04-03T17:29:26;7.90;68.30
4056;DHT22;2043;52.184;8.690;2023-04-03T17:31:53;7.90;68.70
4056;DHT22;2043;52.184;8.690;2023-04-03T17:34:20;7.80;68.90
4056;DHT22;2043;52.184;8.690;2023-04-03T17:36:47;7.80;69.10
4056;DHT22;2043;52.184;8.690;2023-04-03T17:39:14;7.80;69.60
4056;DHT22;2043;52.184;8.690;2023-04-03T17:41:41;7.80;69.60
4056;DHT22;2043;52.184;8.690;2023-04-03T17:44:08;7.70;69.30
4056;DHT22;2043;52.184;8.690;2023-04-03T17:46:35;7.60;69.40
4056;DHT22;2043;52.184;8.690;2023-04-03T17:49:02;7.60;69.50
4056;DHT22;2043;52.184;8.690;2023-04-03T17:51:30;7.50;69.90
4056;DHT22;2043;52.184;8.690;2023-04-03T17:54:00;7.50;70.30
4056;DHT22;2043;52.184;8.690;2023-04-03T17:56:27;7.50;70.20
4056;DHT22;2043;52.184;8.690;2023-04-03T17:58:55;7.50;70.60
4056;DHT22;2043;52.184;8.690;2023-04-03T18:01:28;7.50;70.60
4056;DHT22;2043;52.184;8.690;2023-04-03T18:03:58;7.40;70.80
4056;DHT22;2043;52.184;8.690;2023-04-03T18:06:29;7.40;70.50
4056;DHT22;2043;52.184;8.690;2023-04-03T18:09:04;7.30;71.10
4056;DHT22;2043;52.184;8.690;2023-04-03T18:11:32;7.20;71.70
4056;DHT22;2043;52.184;8.690;2023-04-03T18:14:01;7.20;72.10
4056;DHT22;2043;52.184;8.690;2023-04-03T18:16:29;7.10;71.60
4056;DHT22;2043;52.184;8.690;2023-04-03T18:18:56;7.10;72.20
4056;DHT22;2043;52.184;8.690;2023-04-03T18:21:43;7.00;71.90
4056;DHT22;2043;52.184;8.690;2023-04-03T18:24:16;7.00;72.50
4056;DHT22;2043;52.184;8.690;2023-04-03T18:26:46;7.00;72.60
4056;DHT22;2043;52.184;8.690;2023-04-03T18:29:13;6.90;72.80
4056;DHT22;2043;52.184;8.690;2023-04-03T18:31:45;6.80;73.40
4056;DHT22;2043;52.184;8.690;2023-04-03T18:36:40;6.70;73.60
4056;DHT22;2043;52.184;8.690;2023-04-03T18:39:07;6.70;74.10
4056;DHT22;2043;52.184;8.690;2023-04-03T18:41:36;6.70;74.00
4056;DHT22;2043;52.184;8.690;2023-04-03T18:44:05;6.70;74.40
4056;DHT22;2043;52.184;8.690;2023-04-03T18:46:33;6.60;74.60
4056;DHT22;2043;52.184;8.690;2023-04-03T18:49:00;6.60;74.40
4056;DHT22;2043;52.184;8.690;2023-04-03T18:51:27;6.50;75.00
4056;DHT22;2043;52.184;8.690;2023-04-03T18:53:54;6.50;75.30
4056;DHT22;2043;52.184;8.690;2023-04-03T18:56:21;6.50;75.50
4056;DHT22;2043;52.184;8.690;2023-04-03T18:58:48;6.40;75.90
4056;DHT22;2043;52.184;8.690;2023-04-03T19:01:15;6.20;76.60
4056;DHT22;2043;52.184;8.690;2023-04-03T19:03:43;6.20;76.80
4056;DHT22;2043;52.184;8.690;2023-04-03T19:06:10;6.00;77.60
4056;DHT22;2043;52.184;8.690;2023-04-03T19:08:37;5.90;78.20
4056;DHT22;2043;52.184;8.690;2023-04-03T19:11:04;5.70;78.80
4056;DHT22;2043;52.184;8.690;2023-04-03T19:13:31;5.60;79.40
4056;DHT22;2043;52.184;8.690;2023-04-03T19:15:59;5.50;79.80
4056;DHT22;2043;52.184;8.690;2023-04-03T19:18:26;5.40;80.10
4056;DHT22;2043;52.184;8.690;2023-04-03T19:20:54;5.20;81.10
4056;DHT22;2043;52.184;8.690;2023-04-03T19:23:23;5.10;81.60
4056;DHT22;2043;52.184;8.690;2023-04-03T19:26:05;5.00;82.10
4056;DHT22;2043;52.184;8.690;2023-04-03T19:28:33;4.90;82.30
4056;DHT22;2043;52.184;8.690;2023-04-03T19:31:00;4.90;82.80
4056;DHT22;2043;52.184;8.690;2023-04-03T19:33:27;4.80;83.10
4056;DHT22;2043;52.184;8.690;2023-04-03T19:35:54;4.70;83.50
4056;DHT22;2043;52.184;8.690;2023-04-03T19:38:21;4.50;84.60
4056;DHT22;2043;52.184;8.690;2023-04-03T19:40:48;4.40;84.90
4056;DHT22;2043;52.184;8.690;2023-04-03T19:43:15;4.40;85.20
4056;DHT22;2043;52.184;8.690;2023-04-03T19:45:43;4.30;85.70
4056;DHT22;2043;52.184;8.690;2023-04-03T19:48:12;4.10;86.50
4056;DHT22;2043;52.184;8.690;2023-04-03T19:50:39;4.00;86.90
4056;DHT22;2043;52.184;8.690;2023-04-03T19:53:06;3.90;87.50
4056;DHT22;2043;52.184;8.690;2023-04-03T19:55:36;3.80;88.00
4056;DHT22;2043;52.184;8.690;2023-04-03T19:58:03;3.60;88.80
4056;DHT22;2043;52.184;8.690;2023-04-03T20:00:30;3.40;89.90
4056;DHT22;2043;52.184;8.690;2023-04-03T20:02:57;3.40;90.20
4056;DHT22;2043;52.184;8.690;2023-04-03T20:05:24;3.30;90.50
4056;DHT22;2043;52.184;8.690;2023-04-03T20:07:51;3.20;90.40
4056;DHT22;2043;52.184;8.690;2023-04-03T20:10:18;3.10;90.90